createdAt,value
2019-06-26T00:01:50.461Z,57.79
2019-06-26T00:04:20.405Z,57.72
2019-06-26T00:06:50.335Z,57.83
2019-06-26T00:09:20.284Z,57.91
2019-06-26T00:11:50.555Z,58.05
2019-06-26T00:14:20.778Z,57.73
2019-06-26T00:16:51.124Z,57.57
2019-06-26T00:19:21.036Z,58.00
2019-06-26T00:21:50.983Z,58.52
2019-06-26T00:24:20.896Z,57.84
2019-06-26T00:26:51.093Z,58.24
2019-06-26T00:29:21.395Z,58.19
2019-06-26T00:31:51.592Z,58.56
2019-06-26T00:34:21.817Z,59.23
2019-06-26T00:36:52.037Z,59.19
2019-06-26T00:39:21.972Z,59.36
2019-06-26T00:41:51.924Z,58.87
2019-06-26T00:44:21.853Z,58.12
2019-06-26T00:46:51.824Z,58.18
2019-06-26T00:49:22.018Z,57.80
2019-06-26T00:51:51.959Z,57.64
2019-06-26T00:54:21.895Z,56.96
2019-06-26T00:56:51.841Z,56.91
2019-06-26T00:59:21.780Z,56.82
2019-06-26T01:01:51.999Z,56.65
2019-06-26T01:04:21.945Z,56.35
2019-06-26T01:06:51.875Z,56.27
2019-06-26T01:09:21.846Z,56.89
2019-06-26T01:11:51.792Z,56.41
2019-06-26T01:14:22.083Z,57.09
2019-06-26T01:16:52.267Z,56.97
2019-06-26T01:19:22.518Z,56.80
2019-06-26T01:21:52.733Z,56.84
2019-06-26T01:24:22.953Z,56.74
2019-06-26T01:26:52.891Z,57.00
2019-06-26T01:32:02.159Z,57.01
2019-06-26T01:37:11.413Z,57.67
2019-06-26T01:39:41.335Z,57.90
2019-06-26T01:42:11.595Z,58.32
2019-06-26T01:44:41.517Z,59.61
2019-06-26T01:47:11.458Z,59.91
2019-06-26T01:49:41.403Z,59.68
2019-06-26T01:52:11.344Z,59.80
2019-06-26T01:54:41.273Z,59.64
2019-06-26T01:57:11.481Z,60.12
2019-06-26T02:02:21.048Z,59.78
2019-06-26T02:04:50.965Z,59.41
2019-06-26T02:07:21.174Z,59.53
2019-06-26T02:09:51.098Z,59.65
2019-06-26T02:12:21.308Z,60.11
2019-06-26T02:14:51.241Z,60.71
2019-06-26T02:17:21.182Z,60.75
2019-06-26T02:19:51.101Z,61.68
2019-06-26T02:25:00.750Z,61.44
2019-06-26T02:27:30.734Z,61.18
2019-06-26T02:30:00.668Z,61.73
2019-06-26T02:32:30.952Z,60.90
2019-06-26T02:35:00.884Z,61.60
2019-06-26T02:37:30.818Z,61.21
2019-06-26T02:40:01.024Z,61.45
2019-06-26T02:42:31.231Z,60.65
2019-06-26T02:45:01.447Z,60.88
2019-06-26T02:47:31.664Z,61.22
2019-06-26T02:50:01.899Z,62.48
2019-06-26T02:52:31.835Z,62.08
2019-06-26T02:55:01.767Z,61.03
2019-06-26T02:57:31.718Z,61.48
2019-06-26T03:00:01.655Z,61.37
2019-06-26T03:02:31.568Z,61.30
2019-06-26T03:05:01.523Z,61.01
2019-06-26T03:07:31.437Z,60.74
2019-06-26T03:10:01.362Z,61.12
2019-06-26T03:12:31.305Z,61.55
2019-06-26T03:15:08.747Z,61.52
2019-06-26T03:17:31.173Z,61.10
2019-06-26T03:20:01.095Z,61.31
2019-06-26T03:25:10.368Z,62.28
2019-06-26T03:27:40.308Z,62.42
2019-06-26T03:30:10.309Z,62.64
2019-06-26T03:32:40.184Z,62.98
2019-06-26T03:35:10.114Z,63.45
2019-06-26T03:37:40.058Z,64.03
2019-06-26T03:40:09.972Z,64.44
2019-06-26T03:45:25.683Z,64.70
2019-06-26T03:47:49.769Z,64.37
2019-06-26T03:50:19.705Z,64.34
2019-06-26T03:55:29.340Z,64.23
2019-06-26T03:57:59.281Z,64.20
2019-06-26T04:00:38.243Z,63.32
2019-06-26T04:03:08.182Z,64.38
2019-06-26T04:05:38.098Z,64.00
2019-06-26T04:08:08.054Z,64.27
2019-06-26T04:10:37.971Z,63.74
2019-06-26T04:13:08.254Z,63.19
2019-06-26T04:15:42.426Z,63.07
2019-06-26T04:18:08.410Z,63.88
2019-06-26T04:20:38.333Z,63.93
2019-06-26T04:25:47.591Z,63.63
2019-06-26T04:28:17.529Z,62.85
2019-06-26T04:30:47.780Z,62.04
2019-06-26T04:33:18.021Z,61.19
2019-06-26T04:35:47.924Z,60.70
2019-06-26T04:38:17.861Z,60.06
2019-06-26T04:40:48.044Z,59.46
2019-06-26T04:43:17.988Z,60.47
2019-06-26T04:45:57.612Z,60.17
2019-06-26T04:48:18.122Z,59.62
2019-06-26T04:50:48.043Z,58.97
2019-06-26T04:53:17.977Z,59.16
2019-06-26T04:55:47.905Z,58.32
2019-06-26T04:58:18.168Z,58.58
2019-06-26T05:00:48.087Z,57.49
2019-06-26T05:03:18.062Z,57.50
2019-06-26T05:05:47.947Z,56.52
2019-06-26T05:08:17.878Z,56.35
2019-06-26T05:10:48.133Z,55.57
2019-06-26T05:13:18.059Z,54.85
2019-06-26T05:15:48.281Z,54.58
2019-06-26T05:18:18.205Z,54.28
2019-06-26T05:20:48.146Z,53.81
2019-06-26T05:23:18.087Z,53.25
2019-06-26T05:25:48.008Z,52.57
2019-06-26T05:28:17.948Z,52.21
2019-06-26T05:30:47.881Z,51.89
2019-06-26T05:33:18.054Z,52.57
2019-06-26T05:35:48.247Z,52.77
2019-06-26T05:40:57.503Z,51.93
2019-06-26T05:43:27.779Z,53.44
2019-06-26T05:45:57.724Z,54.56
2019-06-26T05:51:07.241Z,54.31
2019-06-26T05:53:37.160Z,54.14
2019-06-26T05:56:07.363Z,52.92
2019-06-26T05:58:37.594Z,53.04
2019-06-26T06:01:07.772Z,52.21
2019-06-26T06:03:38.034Z,51.96
2019-06-26T06:06:08.207Z,51.44
2019-06-26T06:08:38.157Z,51.02
2019-06-26T06:11:08.067Z,50.87
2019-06-26T06:16:17.416Z,50.46
2019-06-26T06:18:47.658Z,49.95
2019-06-26T06:21:17.587Z,49.45
2019-06-26T06:23:47.521Z,49.28
2019-06-26T06:26:17.453Z,48.87
2019-06-26T06:28:47.714Z,48.83
2019-06-26T06:31:17.929Z,48.92
2019-06-26T06:33:48.156Z,48.92
2019-06-26T06:36:18.115Z,48.10
2019-06-26T06:38:48.384Z,48.10
2019-06-26T06:41:18.565Z,47.69
2019-06-26T06:43:48.470Z,47.67
2019-06-26T06:46:18.397Z,46.48
2019-06-26T06:48:48.559Z,46.67
2019-06-26T06:51:18.480Z,45.95
2019-06-26T06:53:48.735Z,45.71
2019-06-26T06:56:18.670Z,46.53
2019-06-26T06:58:48.599Z,46.30
2019-06-26T07:01:18.838Z,45.15
2019-06-26T07:03:48.766Z,44.34
2019-06-26T07:06:18.696Z,44.32
2019-06-26T07:08:48.678Z,45.05
2019-06-26T07:11:18.902Z,44.42
2019-06-26T07:13:49.124Z,43.93
2019-06-26T07:16:19.069Z,43.03
2019-06-26T07:18:49.257Z,43.13
2019-06-26T07:21:19.488Z,43.46
2019-06-26T07:23:49.702Z,43.76
2019-06-26T07:26:19.640Z,43.35
2019-06-26T07:28:49.857Z,43.28
2019-06-26T07:31:19.788Z,43.14
2019-06-26T07:33:49.704Z,42.40
2019-06-26T07:36:19.641Z,42.58
2019-06-26T07:38:49.922Z,42.72
2019-06-26T07:41:20.145Z,41.92
2019-06-26T07:43:50.039Z,42.41
2019-06-26T07:46:19.994Z,43.24
2019-06-26T07:48:50.169Z,41.68
2019-06-26T07:51:20.212Z,41.72
2019-06-26T07:53:50.029Z,42.49
2019-06-26T07:56:19.962Z,42.60
2019-06-26T07:58:49.884Z,42.51
2019-06-26T08:01:19.814Z,41.45
2019-06-26T08:03:50.053Z,41.54
2019-06-26T08:06:19.980Z,41.47
2019-06-26T08:08:50.137Z,42.08
2019-06-26T08:11:20.070Z,41.97
2019-06-26T08:13:49.991Z,41.95
2019-06-26T08:16:19.930Z,41.36
2019-06-26T08:18:49.863Z,40.91
2019-06-26T08:21:19.792Z,40.63
2019-06-26T08:23:49.720Z,40.41
2019-06-26T08:28:59.345Z,41.26
2019-06-26T08:31:29.328Z,41.34
2019-06-26T08:33:59.246Z,42.03
2019-06-26T08:36:29.122Z,40.92
2019-06-26T08:38:59.389Z,40.59
2019-06-26T08:41:29.320Z,40.67
2019-06-26T08:43:59.246Z,41.00
2019-06-26T08:46:29.540Z,40.55
2019-06-26T08:48:59.798Z,41.03
2019-06-26T08:51:29.706Z,40.29
2019-06-26T08:53:59.614Z,40.76
2019-06-26T08:56:29.554Z,41.29
2019-06-26T08:58:59.832Z,40.73
2019-06-26T09:01:29.770Z,40.49
2019-06-26T09:03:59.976Z,40.21
2019-06-26T09:06:29.924Z,40.68
2019-06-26T09:09:00.104Z,40.29
2019-06-26T09:11:30.049Z,39.76
2019-06-26T09:13:59.984Z,40.08
2019-06-26T09:16:29.931Z,40.70
2019-06-26T09:19:00.124Z,38.96
2019-06-26T09:21:31.175Z,39.14
2019-06-26T09:24:00.295Z,38.71
2019-06-26T09:26:30.509Z,39.09
2019-06-26T09:29:00.426Z,39.75
2019-06-26T09:31:30.354Z,38.94
2019-06-26T09:36:39.607Z,38.51
2019-06-26T09:39:09.818Z,37.80
2019-06-26T09:41:40.029Z,37.78
2019-06-26T09:46:49.891Z,38.92
2019-06-26T09:49:19.807Z,38.42
2019-06-26T09:51:49.759Z,37.70
2019-06-26T09:54:19.943Z,36.95
2019-06-26T09:56:49.881Z,37.12
2019-06-26T09:59:19.797Z,37.24
2019-06-26T10:01:50.103Z,37.64
2019-06-26T10:04:20.031Z,37.10
2019-06-26T10:06:49.973Z,37.41
2019-06-26T10:09:20.140Z,36.51
2019-06-26T10:11:50.083Z,36.06
2019-06-26T10:14:20.272Z,37.24
2019-06-26T10:16:50.215Z,36.44
2019-06-26T10:19:20.419Z,36.83
2019-06-26T10:21:50.643Z,37.32
2019-06-26T10:24:20.805Z,36.63
2019-06-26T10:26:50.754Z,36.87
2019-06-26T10:29:20.960Z,36.18
2019-06-26T10:31:50.864Z,36.96
2019-06-26T10:34:20.799Z,37.83
2019-06-26T10:36:50.842Z,37.01
2019-06-26T10:39:21.049Z,37.16
2019-06-26T10:41:54.705Z,36.88
2019-06-26T10:44:21.183Z,37.03
2019-06-26T10:46:51.287Z,36.34
2019-06-26T10:49:26.997Z,35.56
2019-06-26T10:51:51.273Z,36.16
2019-06-26T10:54:21.563Z,36.27
2019-06-26T10:56:51.516Z,35.28
2019-06-26T10:59:21.476Z,35.46
2019-06-26T11:01:51.397Z,35.64
2019-06-26T11:04:21.334Z,35.29
2019-06-26T11:06:51.270Z,35.10
2019-06-26T11:09:21.225Z,35.27
2019-06-26T11:11:51.141Z,34.57
2019-06-26T11:14:21.110Z,34.28
2019-06-26T11:16:51.290Z,34.59
2019-06-26T11:19:21.542Z,34.77
2019-06-26T11:21:51.443Z,33.50
2019-06-26T11:24:21.656Z,33.93
2019-06-26T11:26:51.565Z,33.25
2019-06-26T11:29:21.503Z,34.64
2019-06-26T11:31:51.432Z,34.12
2019-06-26T11:34:21.699Z,33.30
2019-06-26T11:37:03.279Z,34.32
2019-06-26T11:39:22.143Z,34.02
2019-06-26T11:41:52.063Z,33.84
2019-06-26T11:44:22.280Z,33.85
2019-06-26T11:46:52.205Z,34.34
2019-06-26T11:49:22.152Z,34.94
2019-06-26T11:51:52.075Z,34.69
2019-06-26T11:54:22.340Z,34.55
2019-06-26T11:56:52.589Z,33.95
2019-06-26T11:59:22.559Z,34.50
2019-06-26T12:01:52.464Z,33.59
2019-06-26T12:04:22.407Z,33.62
2019-06-26T12:06:52.636Z,34.88
2019-06-26T12:09:22.554Z,34.46
2019-06-26T12:11:52.486Z,34.45
2019-06-26T12:14:22.769Z,33.20
2019-06-26T12:16:52.742Z,33.90
2019-06-26T12:19:23.686Z,34.67
2019-06-26T12:21:53.535Z,33.37
2019-06-26T12:24:26.448Z,33.34
2019-06-26T12:26:53.392Z,33.62
2019-06-26T12:29:23.356Z,33.73
2019-06-26T12:31:53.602Z,33.73
2019-06-26T12:34:23.544Z,33.77
2019-06-26T12:36:53.474Z,34.50
2019-06-26T12:39:23.410Z,32.88
2019-06-26T12:41:53.342Z,32.54
2019-06-26T12:44:23.305Z,32.01
2019-06-26T12:46:53.220Z,31.02
2019-06-26T12:49:23.522Z,31.35
2019-06-26T12:51:53.446Z,32.02
2019-06-26T12:54:23.389Z,32.54
2019-06-26T12:56:53.325Z,32.86
2019-06-26T12:59:23.571Z,32.97
2019-06-26T13:01:53.501Z,32.44
2019-06-26T13:04:23.726Z,33.57
2019-06-26T13:06:53.625Z,32.92
2019-06-26T13:09:23.570Z,31.90
2019-06-26T13:11:53.495Z,30.97
2019-06-26T13:14:23.443Z,29.93
2019-06-26T13:16:53.362Z,29.52
2019-06-26T13:19:23.303Z,30.72
2019-06-26T13:21:53.228Z,30.79
2019-06-26T13:24:23.169Z,31.53
2019-06-26T13:26:54.673Z,31.93
2019-06-26T13:29:23.388Z,32.28
2019-06-26T13:31:53.309Z,29.47
2019-06-26T13:34:23.240Z,29.47
2019-06-26T13:36:53.170Z,30.63
2019-06-26T13:39:23.137Z,31.27
2019-06-26T13:41:53.336Z,32.06
2019-06-26T13:44:23.550Z,31.10
2019-06-26T13:46:53.773Z,32.04
2019-06-26T13:49:23.730Z,32.51
2019-06-26T13:51:54.002Z,33.10
2019-06-26T13:54:23.954Z,32.04
2019-06-26T13:56:54.179Z,31.95
2019-06-26T13:59:24.083Z,31.06
2019-06-26T14:01:54.286Z,31.36
2019-06-26T14:04:24.221Z,29.99
2019-06-26T14:06:54.163Z,30.79
2019-06-26T14:09:24.431Z,31.69
2019-06-26T14:11:54.658Z,32.53
2019-06-26T14:14:41.071Z,31.66
2019-06-26T14:16:54.892Z,33.68
2019-06-26T14:19:26.861Z,33.34
2019-06-26T14:21:54.769Z,33.57
2019-06-26T14:24:24.723Z,32.62
2019-06-26T14:26:54.635Z,32.54
2019-06-26T14:29:24.859Z,32.43
2019-06-26T14:31:55.082Z,32.98
2019-06-26T14:34:27.872Z,33.73
2019-06-26T14:36:55.242Z,35.92
2019-06-26T14:39:25.436Z,34.86
2019-06-26T14:41:55.363Z,32.39
2019-06-26T14:44:25.581Z,32.79
2019-06-26T14:46:55.522Z,33.27
2019-06-26T14:49:25.449Z,34.26
2019-06-26T14:51:55.385Z,33.98
2019-06-26T14:54:25.310Z,34.70
2019-06-26T14:56:55.540Z,34.56
2019-06-26T14:59:25.762Z,34.92
2019-06-26T15:01:55.706Z,35.02
2019-06-26T15:04:25.896Z,35.16
2019-06-26T15:06:55.833Z,35.60
2019-06-26T15:09:26.005Z,34.69
2019-06-26T15:11:55.936Z,35.35
2019-06-26T15:14:25.861Z,36.00
2019-06-26T15:16:55.809Z,35.08
2019-06-26T15:19:25.997Z,35.20
2019-06-26T15:21:58.796Z,35.12
2019-06-26T15:24:26.437Z,34.49
2019-06-26T15:26:56.658Z,35.16
2019-06-26T15:29:26.589Z,35.83
2019-06-26T15:31:56.795Z,35.33
2019-06-26T15:34:26.723Z,35.93
2019-06-26T15:36:57.026Z,35.40
2019-06-26T15:39:26.952Z,35.71
2019-06-26T15:41:56.917Z,36.14
2019-06-26T15:44:27.192Z,36.77
2019-06-26T15:46:57.139Z,36.23
2019-06-26T15:49:27.069Z,36.53
2019-06-26T15:52:10.820Z,37.47
2019-06-26T15:54:27.545Z,36.19
2019-06-26T15:56:57.511Z,36.80
2019-06-26T15:59:30.892Z,36.23
2019-06-26T16:01:57.995Z,37.06
2019-06-26T16:04:27.916Z,37.77
2019-06-26T16:06:57.864Z,37.96
2019-06-26T16:09:28.053Z,37.59
2019-06-26T16:11:59.041Z,38.30
2019-06-26T16:14:28.263Z,38.45
2019-06-26T16:19:37.542Z,39.24
2019-06-26T16:24:46.819Z,38.89
2019-06-26T16:27:16.751Z,39.07
2019-06-26T16:29:48.623Z,38.90
2019-06-26T16:32:16.939Z,39.09
2019-06-26T16:34:46.865Z,38.97
2019-06-26T16:37:17.188Z,38.71
2019-06-26T16:39:47.120Z,39.85
2019-06-26T16:42:17.061Z,39.80
2019-06-26T16:44:47.042Z,40.01
2019-06-26T16:49:56.272Z,40.47
2019-06-26T16:52:26.506Z,39.98
2019-06-26T16:54:56.438Z,40.48
2019-06-26T16:57:26.717Z,40.20
2019-06-26T17:00:08.977Z,40.68
2019-06-26T17:02:26.885Z,41.76
2019-06-26T17:04:56.812Z,42.14
2019-06-26T17:07:26.750Z,41.44
2019-06-26T17:09:56.732Z,41.22
2019-06-26T17:12:26.930Z,41.98
2019-06-26T17:14:56.849Z,42.20
2019-06-26T17:17:26.789Z,41.08
2019-06-26T17:19:56.722Z,40.66
2019-06-26T17:22:26.670Z,41.60
2019-06-26T17:24:56.605Z,41.88
2019-06-26T17:27:26.724Z,42.54
2019-06-26T17:29:57.025Z,41.75
2019-06-26T17:32:26.966Z,42.62
2019-06-26T17:34:56.893Z,42.53
2019-06-26T17:37:26.835Z,42.62
2019-06-26T17:39:56.842Z,42.61
2019-06-26T17:42:26.807Z,42.44
2019-06-26T17:44:56.737Z,42.95
2019-06-26T17:47:26.643Z,42.56
2019-06-26T17:49:56.846Z,42.25
2019-06-26T17:52:26.790Z,43.40
2019-06-26T17:54:56.966Z,44.40
2019-06-26T17:57:26.906Z,43.99
2019-06-26T17:59:56.836Z,42.75
2019-06-26T18:02:26.791Z,42.90
2019-06-26T18:04:56.726Z,43.38
2019-06-26T18:07:26.685Z,42.16
2019-06-26T18:09:56.977Z,42.61
2019-06-26T18:12:26.905Z,42.57
2019-06-26T18:14:57.262Z,42.45
2019-06-26T18:17:27.540Z,40.68
2019-06-26T18:19:57.758Z,40.26
2019-06-26T18:22:27.690Z,40.40
2019-06-26T18:24:57.651Z,40.32
2019-06-26T18:27:27.938Z,40.85
2019-06-26T18:29:58.242Z,40.67
2019-06-26T18:35:07.765Z,39.68
2019-06-26T18:40:17.360Z,40.40
2019-06-26T18:42:47.311Z,41.50
2019-06-26T18:47:56.597Z,42.14
2019-06-26T18:50:26.552Z,42.20
2019-06-26T18:52:56.480Z,42.44
2019-06-26T18:58:06.008Z,42.67
2019-06-26T19:00:35.949Z,43.69
2019-06-26T19:03:05.874Z,43.10
2019-06-26T19:05:36.153Z,43.83
2019-06-26T19:13:25.051Z,44.69
2019-06-26T19:15:55.297Z,45.01
2019-06-26T19:18:25.179Z,44.69
2019-06-26T19:20:55.399Z,45.32
2019-06-26T19:23:25.335Z,45.39
2019-06-26T19:25:55.624Z,45.04
2019-06-26T19:28:25.539Z,45.45
2019-06-26T19:33:35.175Z,45.89
2019-06-26T19:36:05.317Z,45.91
2019-06-26T19:38:35.237Z,46.60
2019-06-26T19:41:08.367Z,46.80
2019-06-26T19:43:35.098Z,47.12
2019-06-26T19:46:05.401Z,47.71
2019-06-26T19:48:35.333Z,48.14
2019-06-26T19:51:05.263Z,48.66
2019-06-26T19:53:35.263Z,48.55
2019-06-26T19:56:05.150Z,49.17
2019-06-26T20:01:14.483Z,50.32
2019-06-26T20:03:44.736Z,49.93
2019-06-26T20:06:14.928Z,50.20
2019-06-26T20:08:53.330Z,50.19
2019-06-26T20:11:15.155Z,51.24
2019-06-26T20:13:45.099Z,50.81
2019-06-26T20:16:15.305Z,49.61
2019-06-26T20:18:45.523Z,50.13
2019-06-26T20:21:15.767Z,50.74
2019-06-26T20:23:45.692Z,51.34
2019-06-26T20:26:15.620Z,51.42
2019-06-26T20:28:45.556Z,51.69
2019-06-26T20:31:15.495Z,51.86
2019-06-26T20:33:45.717Z,51.97
2019-06-26T20:36:16.047Z,51.87
2019-06-26T20:38:46.222Z,52.31
2019-06-26T20:41:16.482Z,52.52
2019-06-26T20:43:46.407Z,53.41
2019-06-26T20:46:16.386Z,53.67
2019-06-26T20:48:46.640Z,53.98
2019-06-26T20:51:16.576Z,54.45
2019-06-26T20:53:46.766Z,54.64
2019-06-26T20:56:16.711Z,54.93
2019-06-26T20:58:47.013Z,54.95
2019-06-26T21:01:16.973Z,55.82
2019-06-26T21:06:26.253Z,55.93
2019-06-26T21:08:56.507Z,56.97
2019-06-26T21:11:26.451Z,57.32
2019-06-26T21:13:56.405Z,57.06
2019-06-26T21:16:26.638Z,57.11
2019-06-26T21:18:56.577Z,57.04
2019-06-26T21:21:26.775Z,57.64
2019-06-26T21:23:56.727Z,58.90
2019-06-26T21:26:26.691Z,58.99
2019-06-26T21:28:56.614Z,59.92
2019-06-26T21:31:26.540Z,60.03
2019-06-26T21:33:56.783Z,59.59
2019-06-26T21:36:27.075Z,59.25
2019-06-26T21:38:57.289Z,59.65
2019-06-26T21:41:27.231Z,59.89
2019-06-26T21:43:57.151Z,59.61
2019-06-26T21:46:27.087Z,60.18
2019-06-26T21:48:57.376Z,60.30
2019-06-26T21:51:27.607Z,59.54
2019-06-26T21:53:57.800Z,59.66
2019-06-26T21:56:27.740Z,59.90
2019-06-26T21:58:57.967Z,60.03
2019-06-26T22:04:07.282Z,60.33
2019-06-26T22:06:37.184Z,60.11
2019-06-26T22:11:46.474Z,60.33
2019-06-26T22:16:55.742Z,60.05
2019-06-26T22:19:25.668Z,58.88
2019-06-26T22:21:55.608Z,58.29
2019-06-26T22:24:25.537Z,58.29
2019-06-26T22:26:55.752Z,59.54
2019-06-26T22:29:25.976Z,59.54
2019-06-26T22:31:56.164Z,59.58
2019-06-26T22:34:26.423Z,60.01
2019-06-26T22:36:56.650Z,60.06
2019-06-26T22:39:26.863Z,60.91
2019-06-26T22:41:56.798Z,60.91
2019-06-26T22:44:26.991Z,61.48
2019-06-26T22:46:56.935Z,61.83
2019-06-26T22:49:26.864Z,62.23
2019-06-26T22:51:56.801Z,62.25
2019-06-26T22:54:26.724Z,62.05
2019-06-26T22:56:56.673Z,61.64
2019-06-26T22:59:26.605Z,63.10
2019-06-26T23:01:56.569Z,62.64
2019-06-26T23:04:26.820Z,62.53
2019-06-26T23:06:57.036Z,63.37
2019-06-26T23:09:27.259Z,63.53
2019-06-26T23:11:57.194Z,63.69
2019-06-26T23:14:27.490Z,62.64
2019-06-26T23:16:57.420Z,61.62
2019-06-26T23:19:27.637Z,61.03
2019-06-26T23:21:57.569Z,60.83
2019-06-26T23:24:27.865Z,61.09
2019-06-26T23:26:57.784Z,61.38
2019-06-26T23:29:27.725Z,61.22
2019-06-26T23:31:57.649Z,60.90
2019-06-26T23:34:27.587Z,60.82
2019-06-26T23:36:57.527Z,60.78
2019-06-26T23:39:27.760Z,61.53
2019-06-26T23:41:57.688Z,62.27
2019-06-26T23:44:27.908Z,62.27
2019-06-26T23:46:58.114Z,63.69
2019-06-26T23:49:28.065Z,64.06
2019-06-26T23:51:58.360Z,63.26
2019-06-26T23:54:28.580Z,63.57
2019-06-26T23:56:58.511Z,63.76
2019-06-26T23:59:28.822Z,64.08
